createdAt,value
2022-07-29T03:02:09.516Z,92.70
2022-07-29T03:04:41.362Z,91.14
2022-07-29T03:07:11.041Z,91.60
2022-07-29T03:09:39.986Z,91.70
2022-07-29T03:12:07.957Z,90.68
2022-07-29T03:14:37.182Z,88.90
2022-07-29T03:17:07.974Z,89.08
2022-07-29T03:19:35.479Z,89.12
2022-07-29T03:22:03.399Z,89.17
2022-07-29T03:24:33.675Z,90.06
2022-07-29T03:27:02.264Z,90.34
2022-07-29T03:29:33.690Z,90.84
2022-07-29T03:32:07.203Z,90.00
2022-07-29T03:34:37.712Z,91.57
2022-07-29T03:37:09.459Z,92.06
2022-07-29T03:39:42.040Z,90.46
2022-07-29T03:42:13.197Z,90.68
2022-07-29T03:44:44.106Z,90.45
2022-07-29T03:47:14.627Z,91.11
2022-07-29T03:49:43.311Z,92.93
2022-07-29T03:52:10.990Z,94.04
2022-07-29T03:54:39.809Z,93.15
2022-07-29T03:57:08.577Z,93.10
2022-07-29T03:59:36.719Z,92.15
2022-07-29T04:02:06.579Z,92.81
2022-07-29T04:04:36.307Z,92.08
2022-07-29T04:07:04.681Z,91.20
2022-07-29T04:09:32.422Z,90.79
2022-07-29T04:12:03.451Z,89.73
2022-07-29T04:14:35.696Z,89.39
2022-07-29T04:17:05.070Z,89.80
2022-07-29T04:19:33.352Z,89.43
2022-07-29T04:22:01.589Z,88.42
2022-07-29T04:24:30.030Z,89.65
2022-07-29T04:26:57.375Z,89.03
2022-07-29T04:29:24.756Z,88.51
2022-07-29T04:31:52.711Z,89.67
2022-07-29T04:34:21.465Z,89.63
2022-07-29T04:36:48.817Z,88.98
2022-07-29T04:39:22.174Z,88.07
2022-07-29T04:41:54.995Z,89.81
2022-07-29T04:44:28.810Z,87.88
2022-07-29T04:46:56.983Z,87.75
2022-07-29T04:49:24.965Z,89.53
2022-07-29T04:51:52.421Z,88.29
2022-07-29T04:54:19.898Z,87.20
2022-07-29T04:56:47.725Z,88.17
2022-07-29T04:59:15.262Z,89.12
2022-07-29T05:01:42.729Z,89.94
2022-07-29T05:04:10.928Z,90.53
2022-07-29T05:06:38.478Z,90.72
2022-07-29T05:09:05.846Z,88.50
2022-07-29T05:11:33.562Z,88.34
2022-07-29T05:14:00.999Z,84.35
2022-07-29T05:16:29.035Z,85.92
2022-07-29T05:18:56.777Z,87.08
2022-07-29T05:21:24.139Z,86.79
2022-07-29T05:23:51.560Z,83.33
2022-07-29T05:26:19.369Z,83.20
2022-07-29T05:28:46.726Z,83.64
2022-07-29T05:31:15.842Z,85.00
2022-07-29T05:33:44.025Z,84.41
2022-07-29T05:36:11.418Z,84.65
2022-07-29T05:38:40.029Z,84.81
2022-07-29T05:41:07.954Z,85.12
2022-07-29T05:43:35.329Z,84.50
2022-07-29T05:46:02.725Z,85.12
2022-07-29T05:48:30.953Z,85.21
2022-07-29T05:50:58.359Z,85.62
2022-07-29T05:53:25.761Z,83.70
2022-07-29T05:55:53.626Z,83.17
2022-07-29T05:58:21.538Z,84.33
2022-07-29T06:00:49.061Z,84.06
2022-07-29T06:03:16.940Z,83.87
2022-07-29T06:05:44.455Z,83.55
2022-07-29T06:08:11.974Z,83.98
2022-07-29T06:10:39.817Z,84.02
2022-07-29T06:13:07.386Z,83.79
2022-07-29T06:15:35.298Z,85.08
2022-07-29T06:18:03.264Z,82.90
2022-07-29T06:20:32.414Z,83.65
2022-07-29T06:23:00.670Z,83.24
2022-07-29T06:25:33.518Z,83.75
2022-07-29T06:28:00.920Z,82.32
2022-07-29T06:30:29.879Z,82.18
2022-07-29T06:32:57.272Z,81.95
2022-07-29T06:35:38.385Z,79.06
2022-07-29T06:38:34.110Z,77.46
2022-07-29T06:41:01.211Z,77.43
2022-07-29T06:43:52.079Z,76.26
2022-07-29T06:46:23.398Z,76.66
2022-07-29T06:48:52.920Z,70.31
2022-07-29T06:51:23.171Z,70.03
2022-07-29T06:53:59.631Z,68.02
2022-07-29T06:56:39.327Z,68.14
2022-07-29T06:59:11.789Z,69.41
2022-07-29T07:01:41.618Z,68.31
2022-07-29T07:04:10.535Z,67.95
2022-07-29T07:06:41.059Z,67.48
2022-07-29T07:09:08.809Z,66.33
2022-07-29T07:11:36.559Z,64.82
2022-07-29T07:14:04.484Z,64.53
2022-07-29T07:16:33.122Z,63.42
2022-07-29T07:19:01.253Z,62.45
2022-07-29T07:21:30.191Z,63.11
2022-07-29T07:23:59.399Z,61.79
2022-07-29T07:26:27.551Z,60.62
2022-07-29T07:28:55.061Z,59.56
2022-07-29T07:31:22.845Z,61.85
2022-07-29T07:33:50.298Z,59.36
2022-07-29T07:36:17.740Z,60.26
2022-07-29T07:38:45.802Z,59.52
2022-07-29T07:41:13.189Z,60.00
2022-07-29T07:43:40.627Z,58.18
2022-07-29T07:46:08.462Z,57.29
2022-07-29T07:48:37.303Z,57.96
2022-07-29T07:51:04.878Z,58.24
2022-07-29T07:53:32.673Z,58.20
2022-07-29T07:56:10.462Z,58.26
2022-07-29T07:58:39.955Z,59.46
2022-07-29T08:01:07.721Z,58.29
2022-07-29T08:03:35.684Z,57.18
2022-07-29T08:06:04.509Z,56.09
2022-07-29T08:08:31.965Z,56.15
2022-07-29T08:11:02.269Z,56.27
2022-07-29T08:13:35.574Z,54.68
2022-07-29T08:16:12.032Z,55.87
2022-07-29T08:18:41.715Z,54.95
2022-07-29T08:21:09.523Z,55.03
2022-07-29T08:23:47.087Z,55.19
2022-07-29T08:26:16.842Z,55.23
2022-07-29T08:28:46.984Z,55.74
2022-07-29T08:31:15.055Z,54.57
2022-07-29T08:33:43.562Z,54.01
2022-07-29T08:36:11.654Z,53.81
2022-07-29T08:38:39.106Z,55.58
2022-07-29T08:41:07.264Z,54.93
2022-07-29T08:43:38.486Z,53.87
2022-07-29T08:46:06.093Z,52.83
2022-07-29T08:48:37.911Z,52.72
2022-07-29T08:51:08.213Z,52.47
2022-07-29T08:53:39.181Z,51.58
2022-07-29T08:56:07.259Z,53.19
2022-07-29T08:58:37.041Z,51.64
2022-07-29T09:01:12.426Z,51.92
2022-07-29T09:03:42.764Z,51.81
2022-07-29T09:06:15.398Z,51.78
2022-07-29T09:08:43.552Z,50.16
2022-07-29T09:11:12.801Z,49.75
2022-07-29T09:13:40.657Z,49.50
2022-07-29T09:16:09.611Z,49.29
2022-07-29T09:18:46.016Z,49.26
2022-07-29T09:21:34.873Z,48.37
2022-07-29T09:24:12.509Z,48.65
2022-07-29T09:26:45.514Z,47.05
2022-07-29T09:29:21.713Z,47.47
2022-07-29T09:31:52.287Z,47.22
2022-07-29T09:34:25.675Z,44.81
2022-07-29T09:36:55.254Z,44.17
2022-07-29T09:39:32.078Z,44.68
2022-07-29T09:42:02.842Z,44.76
2022-07-29T09:44:51.726Z,43.43
2022-07-29T09:47:22.829Z,44.49
2022-07-29T09:49:59.445Z,43.66
2022-07-29T09:52:28.426Z,43.04
2022-07-29T09:55:07.544Z,42.68
2022-07-29T09:57:35.003Z,43.51
2022-07-29T10:00:08.324Z,42.73
2022-07-29T10:02:41.149Z,42.70
2022-07-29T10:05:26.746Z,40.44
2022-07-29T10:08:04.043Z,42.73
2022-07-29T10:10:34.978Z,42.36
2022-07-29T10:13:16.513Z,42.79
2022-07-29T10:15:46.914Z,42.50
2022-07-29T10:18:15.772Z,44.13
2022-07-29T10:20:43.236Z,43.63
2022-07-29T10:23:11.425Z,41.57
2022-07-29T10:25:38.942Z,40.69
2022-07-29T10:28:07.209Z,40.18
2022-07-29T10:30:35.664Z,39.83
2022-07-29T10:33:15.916Z,40.48
2022-07-29T10:36:02.212Z,40.95
2022-07-29T10:38:45.929Z,39.64
2022-07-29T10:41:43.848Z,40.28
2022-07-29T10:44:26.583Z,39.40
2022-07-29T10:46:55.248Z,39.50
2022-07-29T10:49:25.274Z,38.65
2022-07-29T10:52:06.359Z,38.82
2022-07-29T10:54:37.110Z,37.57
2022-07-29T10:57:54.660Z,38.17
2022-07-29T11:00:27.318Z,37.66
2022-07-29T11:02:56.609Z,37.59
2022-07-29T11:05:32.320Z,38.10
2022-07-29T11:08:20.522Z,37.90
2022-07-29T11:10:54.542Z,37.15
2022-07-29T11:13:52.408Z,36.58
2022-07-29T11:16:26.738Z,36.17
2022-07-29T11:19:13.352Z,36.69
2022-07-29T11:21:53.914Z,36.71
2022-07-29T11:24:34.990Z,37.55
2022-07-29T11:27:13.260Z,37.58
2022-07-29T11:29:52.615Z,37.62
2022-07-29T11:32:24.081Z,35.97
2022-07-29T11:35:17.185Z,37.04
2022-07-29T11:37:52.484Z,35.97
2022-07-29T11:40:25.445Z,36.34
2022-07-29T11:42:53.591Z,36.08
2022-07-29T11:45:43.739Z,36.45
2022-07-29T11:48:28.933Z,35.49
2022-07-29T11:50:58.652Z,37.31
2022-07-29T11:53:29.288Z,35.98
2022-07-29T11:56:01.266Z,36.12
2022-07-29T11:58:31.760Z,35.59
2022-07-29T12:01:04.947Z,36.06
2022-07-29T12:03:36.164Z,36.05
2022-07-29T12:06:15.059Z,35.28
2022-07-29T12:08:44.666Z,35.07
2022-07-29T12:11:21.745Z,35.66
2022-07-29T12:13:51.870Z,34.54
2022-07-29T12:16:29.180Z,36.56
2022-07-29T12:19:02.978Z,35.12
2022-07-29T12:21:56.462Z,35.05
2022-07-29T12:24:26.711Z,34.70
2022-07-29T12:26:57.549Z,34.84
2022-07-29T12:29:35.621Z,34.32
2022-07-29T12:32:14.281Z,34.68
2022-07-29T12:34:42.628Z,34.18
2022-07-29T12:37:11.328Z,34.88
2022-07-29T12:39:39.300Z,33.48
2022-07-29T12:42:18.490Z,34.04
2022-07-29T12:44:50.761Z,33.78
2022-07-29T12:47:19.572Z,32.96
2022-07-29T12:49:47.929Z,34.44
2022-07-29T12:52:33.179Z,34.24
2022-07-29T12:55:02.031Z,33.11
2022-07-29T12:57:30.432Z,33.83
2022-07-29T13:00:14.099Z,33.99
2022-07-29T13:02:43.721Z,34.31
2022-07-29T13:05:12.419Z,34.67
2022-07-29T13:07:55.005Z,33.84
2022-07-29T13:10:30.549Z,34.75
2022-07-29T13:13:16.927Z,36.63
2022-07-29T13:15:46.057Z,36.19
2022-07-29T13:18:34.932Z,36.82
2022-07-29T13:21:16.470Z,36.94
2022-07-29T13:23:44.829Z,36.75
2022-07-29T13:26:12.933Z,35.31
2022-07-29T13:28:44.023Z,35.03
2022-07-29T13:31:12.309Z,34.58
2022-07-29T13:33:39.748Z,35.03
2022-07-29T13:36:07.414Z,34.07
2022-07-29T13:38:35.150Z,34.96
2022-07-29T13:41:03.513Z,35.77
2022-07-29T13:43:30.874Z,35.34
2022-07-29T13:45:58.636Z,35.91
2022-07-29T13:48:26.024Z,35.09
2022-07-29T13:50:53.395Z,35.71
2022-07-29T13:53:26.974Z,36.33
2022-07-29T13:55:55.192Z,34.07
2022-07-29T13:58:23.032Z,33.33
2022-07-29T14:00:50.960Z,32.48
2022-07-29T14:03:18.797Z,32.10
2022-07-29T14:05:46.215Z,32.24
2022-07-29T14:08:13.552Z,32.47
2022-07-29T14:10:41.239Z,31.59
2022-07-29T14:13:24.491Z,31.02
2022-07-29T14:15:54.103Z,31.04
2022-07-29T14:18:21.515Z,31.01
2022-07-29T14:20:49.318Z,31.28
2022-07-29T14:23:16.933Z,31.17
2022-07-29T14:25:49.856Z,31.70
2022-07-29T14:28:17.993Z,32.48
2022-07-29T14:30:45.421Z,31.77
2022-07-29T14:33:12.763Z,30.99
2022-07-29T14:35:43.031Z,31.53
2022-07-29T14:38:10.507Z,31.62
2022-07-29T14:40:38.303Z,31.22
2022-07-29T14:43:06.070Z,31.07
2022-07-29T14:45:33.481Z,30.89
2022-07-29T14:48:01.501Z,30.79
2022-07-29T14:50:31.927Z,31.50
2022-07-29T14:53:02.961Z,30.46
2022-07-29T14:55:31.023Z,31.83
2022-07-29T14:58:08.791Z,31.07
2022-07-29T15:00:38.985Z,30.29
2022-07-29T15:03:06.765Z,30.31
2022-07-29T15:05:39.852Z,29.71
2022-07-29T15:08:09.280Z,29.57
2022-07-29T15:10:39.231Z,30.04
2022-07-29T15:13:06.890Z,28.05
2022-07-29T15:15:34.411Z,28.34
2022-07-29T15:18:01.787Z,29.29
2022-07-29T15:20:29.618Z,27.94
2022-07-29T15:22:57.227Z,27.34
2022-07-29T15:25:26.547Z,27.88
2022-07-29T15:28:00.801Z,28.08
2022-07-29T15:30:33.311Z,27.38
2022-07-29T15:33:04.092Z,26.22
2022-07-29T15:35:40.268Z,26.87
2022-07-29T15:38:09.334Z,27.55
2022-07-29T15:40:42.302Z,29.59
2022-07-29T15:43:10.648Z,27.59
2022-07-29T15:45:43.766Z,26.19
2022-07-29T15:48:14.777Z,26.40
2022-07-29T15:50:47.121Z,25.99
2022-07-29T15:53:15.183Z,25.16
2022-07-29T15:55:42.562Z,27.35
2022-07-29T15:58:11.931Z,29.23
2022-07-29T16:00:39.732Z,32.85
2022-07-29T16:03:07.453Z,32.69
2022-07-29T16:05:34.812Z,31.13
2022-07-29T16:08:02.192Z,29.92
2022-07-29T16:10:30.005Z,31.13
2022-07-29T16:12:57.370Z,33.33
2022-07-29T16:15:24.827Z,34.06
2022-07-29T16:17:52.504Z,35.52
2022-07-29T16:20:21.072Z,36.61
2022-07-29T16:22:49.535Z,36.81
2022-07-29T16:25:19.661Z,35.53
2022-07-29T16:27:47.088Z,36.52
2022-07-29T16:30:14.488Z,39.70
2022-07-29T16:32:42.292Z,38.89
2022-07-29T16:35:10.071Z,39.90
2022-07-29T16:37:38.384Z,39.96
2022-07-29T16:40:07.813Z,40.58
2022-07-29T16:42:47.481Z,39.01
2022-07-29T16:45:18.046Z,40.44
2022-07-29T16:47:51.384Z,42.20
2022-07-29T16:50:20.470Z,40.06
2022-07-29T16:52:47.846Z,40.57
2022-07-29T16:55:15.190Z,42.40
2022-07-29T16:57:44.009Z,44.54
2022-07-29T17:00:12.080Z,44.46
2022-07-29T17:02:39.636Z,45.76
2022-07-29T17:05:08.639Z,45.63
2022-07-29T17:07:36.290Z,46.77
2022-07-29T17:10:13.959Z,49.80
2022-07-29T17:12:42.139Z,50.67
2022-07-29T17:15:19.313Z,51.56
2022-07-29T17:18:28.473Z,49.96
2022-07-29T17:20:55.820Z,51.70
2022-07-29T17:23:26.554Z,52.24
2022-07-29T17:25:53.979Z,52.56
2022-07-29T17:28:21.995Z,52.95
2022-07-29T17:30:49.823Z,53.52
2022-07-29T17:33:19.554Z,52.38
2022-07-29T17:36:07.031Z,51.74
2022-07-29T17:38:34.785Z,54.49
2022-07-29T17:41:02.457Z,54.11
2022-07-29T17:43:39.876Z,53.26
2022-07-29T17:46:08.141Z,54.50
2022-07-29T17:48:36.328Z,55.40
2022-07-29T17:51:04.075Z,55.75
2022-07-29T17:53:31.592Z,55.86
2022-07-29T17:56:01.685Z,56.13
2022-07-29T17:58:32.387Z,56.03
2022-07-29T18:01:00.028Z,56.39
2022-07-29T18:03:28.070Z,56.52
2022-07-29T18:05:55.805Z,56.57
2022-07-29T18:08:23.826Z,56.53
2022-07-29T18:11:01.759Z,56.49
2022-07-29T18:13:31.991Z,57.36
2022-07-29T18:16:00.632Z,58.83
2022-07-29T18:18:28.193Z,58.97
2022-07-29T18:20:55.994Z,59.55
2022-07-29T18:23:24.064Z,58.33
2022-07-29T18:26:05.631Z,58.08
2022-07-29T18:28:36.443Z,58.93
2022-07-29T18:31:04.566Z,59.61
2022-07-29T18:33:32.801Z,60.08
2022-07-29T18:36:11.389Z,59.64
2022-07-29T18:38:41.435Z,60.24
2022-07-29T18:41:09.321Z,59.71
2022-07-29T18:43:59.247Z,59.65
2022-07-29T18:46:28.972Z,61.33
2022-07-29T18:48:57.490Z,61.65
2022-07-29T18:51:24.957Z,62.22
2022-07-29T18:53:52.803Z,61.24
2022-07-29T18:56:21.508Z,61.10
2022-07-29T18:58:48.874Z,60.95
2022-07-29T19:01:22.175Z,61.50
2022-07-29T19:03:49.698Z,61.58
2022-07-29T19:06:17.547Z,62.26
2022-07-29T19:08:45.210Z,62.49
2022-07-29T19:11:15.243Z,62.59
2022-07-29T19:13:43.292Z,61.58
2022-07-29T19:16:15.328Z,62.15
2022-07-29T19:18:44.812Z,62.53
2022-07-29T19:21:33.283Z,63.10
2022-07-29T19:24:17.500Z,62.97
2022-07-29T19:26:55.673Z,63.16
2022-07-29T19:29:28.569Z,62.34
2022-07-29T19:31:55.921Z,63.15
2022-07-29T19:34:23.801Z,61.73
2022-07-29T19:36:51.260Z,63.43
2022-07-29T19:39:18.713Z,63.33
2022-07-29T19:42:03.389Z,63.04
2022-07-29T19:44:31.074Z,62.59
2022-07-29T19:47:02.733Z,63.30
2022-07-29T19:49:30.451Z,64.18
2022-07-29T19:51:57.764Z,64.46
2022-07-29T19:54:26.708Z,65.06
2022-07-29T19:56:54.707Z,64.52
2022-07-29T19:59:24.588Z,64.18
2022-07-29T20:01:52.161Z,64.32
2022-07-29T20:04:19.880Z,63.27
2022-07-29T20:06:49.669Z,64.39
2022-07-29T20:09:20.610Z,65.26
2022-07-29T20:11:48.619Z,65.34
2022-07-29T20:14:16.043Z,65.14
2022-07-29T20:16:43.388Z,65.30
2022-07-29T20:19:11.109Z,65.66
2022-07-29T20:21:38.574Z,66.08
2022-07-29T20:24:06.329Z,67.28
2022-07-29T20:29:05.457Z,65.99
2022-07-29T20:31:33.306Z,66.66
2022-07-29T20:34:02.139Z,67.68
2022-07-29T20:36:29.624Z,66.99
2022-07-29T20:38:57.240Z,66.91
2022-07-29T20:41:24.983Z,67.29
2022-07-29T20:43:53.008Z,66.60
2022-07-29T20:46:20.468Z,66.52
2022-07-29T20:48:48.354Z,66.52
2022-07-29T20:51:15.784Z,67.53
2022-07-29T20:53:43.160Z,68.03
2022-07-29T20:56:12.605Z,67.65
2022-07-29T20:58:40.995Z,68.13
2022-07-29T21:01:09.865Z,66.58
2022-07-29T21:03:37.745Z,68.00
2022-07-29T21:06:05.160Z,67.78
2022-07-29T21:08:32.523Z,67.81
2022-07-29T21:11:00.181Z,68.24
2022-07-29T21:13:27.744Z,67.71
2022-07-29T21:15:59.974Z,67.96
2022-07-29T21:18:32.463Z,68.31
2022-07-29T21:21:01.376Z,67.13
2022-07-29T21:23:30.325Z,66.97
2022-07-29T21:25:58.089Z,66.67
2022-07-29T21:28:29.537Z,67.27
2022-07-29T21:31:00.872Z,66.81
2022-07-29T21:33:30.084Z,67.77
2022-07-29T21:36:15.996Z,67.23
2022-07-29T21:38:45.440Z,67.24
2022-07-29T21:41:14.964Z,67.41
2022-07-29T21:43:42.790Z,67.12
2022-07-29T21:46:10.546Z,67.85
2022-07-29T21:48:42.420Z,68.21
2022-07-29T21:51:11.683Z,68.84
2022-07-29T21:53:39.289Z,69.88
2022-07-29T21:56:07.611Z,69.78
2022-07-29T21:58:40.685Z,69.64
2022-07-29T22:01:08.299Z,68.88
2022-07-29T22:03:36.134Z,68.91
2022-07-29T22:06:03.855Z,69.34
2022-07-29T22:08:31.168Z,69.74
2022-07-29T22:10:59.026Z,68.81
2022-07-29T22:13:26.681Z,68.61
2022-07-29T22:15:54.043Z,68.96
2022-07-29T22:18:24.708Z,68.99
2022-07-29T22:20:51.967Z,68.76
2022-07-29T22:23:19.213Z,69.30
2022-07-29T22:25:46.911Z,70.12
2022-07-29T22:28:14.137Z,70.51
2022-07-29T22:30:41.424Z,71.08
2022-07-29T22:33:09.117Z,72.53
2022-07-29T22:35:45.137Z,72.23
2022-07-29T22:38:19.685Z,71.57
2022-07-29T22:40:50.809Z,70.92
2022-07-29T22:43:18.844Z,71.00
2022-07-29T22:45:46.176Z,70.17
2022-07-29T22:48:13.611Z,69.82
2022-07-29T22:50:42.051Z,69.67
2022-07-29T22:53:09.422Z,69.87
2022-07-29T22:55:36.801Z,70.72
2022-07-29T22:58:04.406Z,70.27
2022-07-29T23:00:31.695Z,70.22
2022-07-29T23:02:58.987Z,70.04
2022-07-29T23:05:26.545Z,70.87
2022-07-29T23:07:53.833Z,70.79
2022-07-29T23:10:22.917Z,70.52
2022-07-29T23:12:50.687Z,70.50
2022-07-29T23:15:18.173Z,70.62
2022-07-29T23:17:45.459Z,71.62
2022-07-29T23:20:14.792Z,70.91
2022-07-29T23:22:42.335Z,71.91
2022-07-29T23:25:09.684Z,71.13
2022-07-29T23:27:37.543Z,71.73
2022-07-29T23:30:05.367Z,71.21
2022-07-29T23:32:32.646Z,70.52
2022-07-29T23:35:00.515Z,70.63
2022-07-29T23:37:28.055Z,70.97
2022-07-29T23:39:55.486Z,72.21
2022-07-29T23:42:23.314Z,71.68
2022-07-29T23:44:50.690Z,71.43
2022-07-29T23:47:18.155Z,72.53
2022-07-29T23:49:46.604Z,72.41
2022-07-29T23:52:13.772Z,72.35
2022-07-29T23:54:41.019Z,71.24
2022-07-29T23:57:09.022Z,74.06
2022-07-29T23:59:36.325Z,74.21
